sensor_id;sensor_type;location;lat;lon;timestamp;P1;durP1;ratioP1;P2;durP2;ratioP2
30080;SDS011;16902;50.816;12.828;2023-03-20T00:02:39;7.43;;;6.65;;
30080;SDS011;16902;50.816;12.828;2023-03-20T00:07:40;9.90;;;7.97;;
30080;SDS011;16902;50.816;12.828;2023-03-20T00:12:42;8.10;;;7.30;;
30080;SDS011;16902;50.816;12.828;2023-03-20T00:17:45;9.13;;;7.57;;
30080;SDS011;16902;50.816;12.828;2023-03-20T00:22:47;9.73;;;7.40;;
30080;SDS011;16902;50.816;12.828;2023-03-20T00:27:50;9.60;;;7.30;;
30080;SDS011;16902;50.816;12.828;2023-03-20T00:32:53;8.43;;;7.28;;
30080;SDS011;16902;50.816;12.828;2023-03-20T00:37:56;9.40;;;8.00;;
30080;SDS011;16902;50.816;12.828;2023-03-20T00:43:00;7.72;;;6.93;;
30080;SDS011;16902;50.816;12.828;2023-03-20T00:48:03;9.43;;;7.82;;
30080;SDS011;16902;50.816;12.828;2023-03-20T00:53:08;8.95;;;7.20;;
30080;SDS011;16902;50.816;12.828;2023-03-20T00:58:11;8.40;;;7.40;;
30080;SDS011;16902;50.816;12.828;2023-03-20T01:03:18;8.95;;;8.05;;
30080;SDS011;16902;50.816;12.828;2023-03-20T01:08:23;9.00;;;7.55;;
30080;SDS011;16902;50.816;12.828;2023-03-20T01:13:27;8.65;;;7.63;;
30080;SDS011;16902;50.816;12.828;2023-03-20T01:18:30;8.80;;;7.90;;
30080;SDS011;16902;50.816;12.828;2023-03-20T01:23:32;8.93;;;7.75;;
30080;SDS011;16902;50.816;12.828;2023-03-20T01:28:34;9.45;;;7.50;;
30080;SDS011;16902;50.816;12.828;2023-03-20T01:33:36;10.35;;;8.57;;
30080;SDS011;16902;50.816;12.828;2023-03-20T01:38:38;8.70;;;7.85;;
30080;SDS011;16902;50.816;12.828;2023-03-20T01:43:41;11.35;;;8.48;;
30080;SDS011;16902;50.816;12.828;2023-03-20T01:54:01;9.40;;;8.45;;
30080;SDS011;16902;50.816;12.828;2023-03-20T01:59:13;9.90;;;8.30;;
30080;SDS011;16902;50.816;12.828;2023-03-20T02:04:19;8.43;;;7.25;;
30080;SDS011;16902;50.816;12.828;2023-03-20T02:09:35;9.00;;;7.55;;
30080;SDS011;16902;50.816;12.828;2023-03-20T02:14:43;9.13;;;7.05;;
30080;SDS011;16902;50.816;12.828;2023-03-20T02:20:15;8.10;;;7.30;;
30080;SDS011;16902;50.816;12.828;2023-03-20T02:36:13;8.60;;;7.70;;
30080;SDS011;16902;50.816;12.828;2023-03-20T02:41:41;9.55;;;7.13;;
30080;SDS011;16902;50.816;12.828;2023-03-20T02:52:03;7.78;;;7.05;;
30080;SDS011;16902;50.816;12.828;2023-03-20T03:03:34;6.93;;;6.22;;
30080;SDS011;16902;50.816;12.828;2023-03-20T03:08:19;6.93;;;6.22;;
30080;SDS011;16902;50.816;12.828;2023-03-20T03:13:27;7.13;;;6.43;;
30080;SDS011;16902;50.816;12.828;2023-03-20T03:18:31;7.38;;;6.50;;
30080;SDS011;16902;50.816;12.828;2023-03-20T03:23:40;7.03;;;6.30;;
30080;SDS011;16902;50.816;12.828;2023-03-20T03:28:47;6.40;;;5.80;;
30080;SDS011;16902;50.816;12.828;2023-03-20T03:33:52;6.95;;;6.25;;
30080;SDS011;16902;50.816;12.828;2023-03-20T03:39:02;7.13;;;6.43;;
30080;SDS011;16902;50.816;12.828;2023-03-20T03:49:53;7.57;;;6.32;;
30080;SDS011;16902;50.816;12.828;2023-03-20T03:54:59;7.43;;;6.15;;
30080;SDS011;16902;50.816;12.828;2023-03-20T04:00:05;7.93;;;6.13;;
30080;SDS011;16902;50.816;12.828;2023-03-20T04:05:15;9.07;;;6.75;;
30080;SDS011;16902;50.816;12.828;2023-03-20T04:10:19;7.53;;;6.22;;
30080;SDS011;16902;50.816;12.828;2023-03-20T04:15:21;6.97;;;6.22;;
30080;SDS011;16902;50.816;12.828;2023-03-20T04:20:23;8.07;;;6.47;;
30080;SDS011;16902;50.816;12.828;2023-03-20T04:25:25;7.68;;;6.90;;
30080;SDS011;16902;50.816;12.828;2023-03-20T04:30:29;9.55;;;8.30;;
30080;SDS011;16902;50.816;12.828;2023-03-20T04:35:50;8.38;;;7.45;;
30080;SDS011;16902;50.816;12.828;2023-03-20T04:40:53;9.48;;;8.10;;
30080;SDS011;16902;50.816;12.828;2023-03-20T04:45:55;8.40;;;7.60;;
30080;SDS011;16902;50.816;12.828;2023-03-20T04:50:56;8.05;;;6.95;;
30080;SDS011;16902;50.816;12.828;2023-03-20T04:56:10;11.77;;;7.38;;
30080;SDS011;16902;50.816;12.828;2023-03-20T05:01:12;7.70;;;6.97;;
30080;SDS011;16902;50.816;12.828;2023-03-20T05:06:14;9.00;;;7.47;;
30080;SDS011;16902;50.816;12.828;2023-03-20T05:11:17;9.68;;;7.55;;
30080;SDS011;16902;50.816;12.828;2023-03-20T05:16:48;9.80;;;7.55;;
30080;SDS011;16902;50.816;12.828;2023-03-20T05:22:19;9.02;;;7.10;;
30080;SDS011;16902;50.816;12.828;2023-03-20T05:27:44;8.32;;;6.85;;
30080;SDS011;16902;50.816;12.828;2023-03-20T05:33:24;12.07;;;7.00;;
30080;SDS011;16902;50.816;12.828;2023-03-20T05:38:49;11.52;;;7.97;;
30080;SDS011;16902;50.816;12.828;2023-03-20T05:44:09;10.00;;;8.55;;
30080;SDS011;16902;50.816;12.828;2023-03-20T05:49:30;10.23;;;7.18;;
30080;SDS011;16902;50.816;12.828;2023-03-20T05:54:50;8.95;;;7.28;;
30080;SDS011;16902;50.816;12.828;2023-03-20T05:59:59;7.57;;;6.88;;
30080;SDS011;16902;50.816;12.828;2023-03-20T06:05:13;10.73;;;7.30;;
30080;SDS011;16902;50.816;12.828;2023-03-20T06:10:20;9.10;;;7.90;;
30080;SDS011;16902;50.816;12.828;2023-03-20T06:15:24;10.52;;;8.20;;
30080;SDS011;16902;50.816;12.828;2023-03-20T06:20:33;8.32;;;7.07;;
30080;SDS011;16902;50.816;12.828;2023-03-20T06:25:36;9.57;;;8.23;;
30080;SDS011;16902;50.816;12.828;2023-03-20T06:30:40;10.43;;;7.75;;
30080;SDS011;16902;50.816;12.828;2023-03-20T06:35:50;11.65;;;8.98;;
30080;SDS011;16902;50.816;12.828;2023-03-20T06:40:51;12.45;;;8.77;;
30080;SDS011;16902;50.816;12.828;2023-03-20T06:45:53;11.20;;;8.25;;
30080;SDS011;16902;50.816;12.828;2023-03-20T06:50:58;9.00;;;8.10;;
30080;SDS011;16902;50.816;12.828;2023-03-20T06:56:07;9.98;;;8.18;;
30080;SDS011;16902;50.816;12.828;2023-03-20T07:01:14;10.23;;;9.20;;
30080;SDS011;16902;50.816;12.828;2023-03-20T07:06:20;11.77;;;9.88;;
30080;SDS011;16902;50.816;12.828;2023-03-20T07:11:24;13.95;;;10.05;;
30080;SDS011;16902;50.816;12.828;2023-03-20T07:16:28;11.77;;;9.10;;
30080;SDS011;16902;50.816;12.828;2023-03-20T07:21:29;9.98;;;8.20;;
30080;SDS011;16902;50.816;12.828;2023-03-20T07:26:32;9.27;;;8.32;;
30080;SDS011;16902;50.816;12.828;2023-03-20T07:31:34;9.77;;;8.57;;
30080;SDS011;16902;50.816;12.828;2023-03-20T07:36:46;9.55;;;8.30;;
30080;SDS011;16902;50.816;12.828;2023-03-20T07:41:52;9.75;;;8.80;;
30080;SDS011;16902;50.816;12.828;2023-03-20T07:47:10;9.63;;;8.70;;
30080;SDS011;16902;50.816;12.828;2023-03-20T07:52:12;11.50;;;8.38;;
30080;SDS011;16902;50.816;12.828;2023-03-20T07:57:14;8.90;;;8.00;;
30080;SDS011;16902;50.816;12.828;2023-03-20T08:02:16;8.40;;;7.60;;
30080;SDS011;16902;50.816;12.828;2023-03-20T08:07:18;9.05;;;8.13;;
30080;SDS011;16902;50.816;12.828;2023-03-20T08:12:20;8.68;;;7.70;;
30080;SDS011;16902;50.816;12.828;2023-03-20T08:17:22;9.20;;;8.30;;
30080;SDS011;16902;50.816;12.828;2023-03-20T08:22:23;8.50;;;7.70;;
30080;SDS011;16902;50.816;12.828;2023-03-20T08:27:25;8.40;;;7.70;;
30080;SDS011;16902;50.816;12.828;2023-03-20T08:32:27;8.85;;;8.05;;
30080;SDS011;16902;50.816;12.828;2023-03-20T08:37:29;8.25;;;7.55;;
30080;SDS011;16902;50.816;12.828;2023-03-20T08:42:33;8.57;;;7.63;;
30080;SDS011;16902;50.816;12.828;2023-03-20T08:47:34;8.48;;;7.65;;
30080;SDS011;16902;50.816;12.828;2023-03-20T08:52:36;10.25;;;8.70;;
30080;SDS011;16902;50.816;12.828;2023-03-20T08:57:38;8.40;;;7.32;;
30080;SDS011;16902;50.816;12.828;2023-03-20T09:02:41;10.90;;;8.55;;
30080;SDS011;16902;50.816;12.828;2023-03-20T09:07:43;10.80;;;9.75;;
30080;SDS011;16902;50.816;12.828;2023-03-20T09:12:45;11.60;;;10.52;;
30080;SDS011;16902;50.816;12.828;2023-03-20T09:17:47;8.90;;;8.10;;
30080;SDS011;16902;50.816;12.828;2023-03-20T09:22:48;11.52;;;8.70;;
30080;SDS011;16902;50.816;12.828;2023-03-20T09:27:51;8.88;;;8.07;;
30080;SDS011;16902;50.816;12.828;2023-03-20T09:32:55;10.07;;;9.07;;
30080;SDS011;16902;50.816;12.828;2023-03-20T09:37:57;10.13;;;9.02;;
30080;SDS011;16902;50.816;12.828;2023-03-20T09:53:52;12.07;;;10.73;;
30080;SDS011;16902;50.816;12.828;2023-03-20T09:59:02;11.00;;;9.93;;
30080;SDS011;16902;50.816;12.828;2023-03-20T10:04:06;11.95;;;10.48;;
30080;SDS011;16902;50.816;12.828;2023-03-20T10:09:15;11.10;;;9.95;;
30080;SDS011;16902;50.816;12.828;2023-03-20T10:14:23;12.23;;;10.30;;
30080;SDS011;16902;50.816;12.828;2023-03-20T10:35:48;12.02;;;10.80;;
30080;SDS011;16902;50.816;12.828;2023-03-20T10:40:57;10.90;;;9.80;;
30080;SDS011;16902;50.816;12.828;2023-03-20T10:46:01;10.68;;;9.68;;
30080;SDS011;16902;50.816;12.828;2023-03-20T10:51:10;11.55;;;10.45;;
30080;SDS011;16902;50.816;12.828;2023-03-20T11:01:45;12.90;;;11.65;;
30080;SDS011;16902;50.816;12.828;2023-03-20T11:06:49;12.23;;;10.93;;
30080;SDS011;16902;50.816;12.828;2023-03-20T11:12:02;11.75;;;10.55;;
30080;SDS011;16902;50.816;12.828;2023-03-20T11:17:04;11.63;;;10.52;;
30080;SDS011;16902;50.816;12.828;2023-03-20T11:22:28;12.05;;;10.65;;
30080;SDS011;16902;50.816;12.828;2023-03-20T11:27:32;12.10;;;10.95;;
30080;SDS011;16902;50.816;12.828;2023-03-20T11:32:38;11.73;;;10.63;;
30080;SDS011;16902;50.816;12.828;2023-03-20T11:37:47;14.20;;;13.00;;
30080;SDS011;16902;50.816;12.828;2023-03-20T11:48:02;13.43;;;12.23;;
30080;SDS011;16902;50.816;12.828;2023-03-20T11:58:24;13.15;;;11.90;;
30080;SDS011;16902;50.816;12.828;2023-03-20T12:03:35;12.77;;;11.68;;
30080;SDS011;16902;50.816;12.828;2023-03-20T12:08:42;11.05;;;9.95;;
30080;SDS011;16902;50.816;12.828;2023-03-20T12:13:48;8.00;;;7.00;;
30080;SDS011;16902;50.816;12.828;2023-03-20T12:18:53;8.55;;;7.43;;
30080;SDS011;16902;50.816;12.828;2023-03-20T12:24:08;7.80;;;6.80;;
30080;SDS011;16902;50.816;12.828;2023-03-20T12:34:20;4.75;;;4.32;;
30080;SDS011;16902;50.816;12.828;2023-03-20T12:39:35;5.18;;;4.20;;
30080;SDS011;16902;50.816;12.828;2023-03-20T12:55:51;4.10;;;3.80;;
30080;SDS011;16902;50.816;12.828;2023-03-20T13:05:41;4.70;;;4.30;;
30080;SDS011;16902;50.816;12.828;2023-03-20T13:32:21;5.13;;;4.50;;
30080;SDS011;16902;50.816;12.828;2023-03-20T13:37:34;5.13;;;4.47;;
30080;SDS011;16902;50.816;12.828;2023-03-20T13:42:46;3.90;;;3.70;;
30080;SDS011;16902;50.816;12.828;2023-03-20T13:47:55;4.38;;;4.18;;
30080;SDS011;16902;50.816;12.828;2023-03-20T13:53:11;4.57;;;4.28;;
30080;SDS011;16902;50.816;12.828;2023-03-20T14:03:46;5.30;;;4.90;;
30080;SDS011;16902;50.816;12.828;2023-03-20T14:08:52;6.30;;;5.80;;
30080;SDS011;16902;50.816;12.828;2023-03-20T14:13:55;6.40;;;5.80;;
30080;SDS011;16902;50.816;12.828;2023-03-20T14:19:21;6.63;;;5.40;;
30080;SDS011;16902;50.816;12.828;2023-03-20T14:24:25;5.22;;;4.75;;
30080;SDS011;16902;50.816;12.828;2023-03-20T14:34:43;5.72;;;5.22;;
30080;SDS011;16902;50.816;12.828;2023-03-20T14:39:52;5.22;;;4.82;;
30080;SDS011;16902;50.816;12.828;2023-03-20T15:00:49;7.47;;;4.85;;
30080;SDS011;16902;50.816;12.828;2023-03-20T15:05:54;7.85;;;5.63;;
30080;SDS011;16902;50.816;12.828;2023-03-20T15:10:58;8.02;;;6.93;;
30080;SDS011;16902;50.816;12.828;2023-03-20T15:16:07;6.57;;;5.82;;
30080;SDS011;16902;50.816;12.828;2023-03-20T15:21:14;8.45;;;5.57;;
30080;SDS011;16902;50.816;12.828;2023-03-20T15:26:18;9.23;;;6.93;;
30080;SDS011;16902;50.816;12.828;2023-03-20T15:31:23;8.10;;;6.78;;
30080;SDS011;16902;50.816;12.828;2023-03-20T15:36:30;7.82;;;7.00;;
30080;SDS011;16902;50.816;12.828;2023-03-20T15:41:37;7.80;;;6.45;;
30080;SDS011;16902;50.816;12.828;2023-03-20T15:46:39;9.68;;;7.07;;
30080;SDS011;16902;50.816;12.828;2023-03-20T15:51:41;10.10;;;7.85;;
30080;SDS011;16902;50.816;12.828;2023-03-20T15:56:43;11.10;;;8.48;;
30080;SDS011;16902;50.816;12.828;2023-03-20T16:01:47;10.75;;;8.00;;
30080;SDS011;16902;50.816;12.828;2023-03-20T16:06:58;10.85;;;8.20;;
30080;SDS011;16902;50.816;12.828;2023-03-20T16:12:01;11.93;;;8.98;;
30080;SDS011;16902;50.816;12.828;2023-03-20T16:17:03;13.70;;;10.38;;
30080;SDS011;16902;50.816;12.828;2023-03-20T16:27:48;14.88;;;11.30;;
30080;SDS011;16902;50.816;12.828;2023-03-20T16:32:58;12.52;;;9.73;;
30080;SDS011;16902;50.816;12.828;2023-03-20T16:38:12;13.60;;;10.93;;
30080;SDS011;16902;50.816;12.828;2023-03-20T16:43:17;14.68;;;10.02;;
30080;SDS011;16902;50.816;12.828;2023-03-20T16:53:30;14.73;;;10.10;;
30080;SDS011;16902;50.816;12.828;2023-03-20T16:58:38;15.45;;;11.25;;
30080;SDS011;16902;50.816;12.828;2023-03-20T17:03:55;17.08;;;12.15;;
30080;SDS011;16902;50.816;12.828;2023-03-20T17:09:00;18.75;;;11.77;;
30080;SDS011;16902;50.816;12.828;2023-03-20T17:14:09;18.15;;;12.05;;
30080;SDS011;16902;50.816;12.828;2023-03-20T17:19:17;26.70;;;16.08;;
30080;SDS011;16902;50.816;12.828;2023-03-20T17:24:19;18.17;;;11.63;;
30080;SDS011;16902;50.816;12.828;2023-03-20T17:29:21;16.67;;;11.98;;
30080;SDS011;16902;50.816;12.828;2023-03-20T17:34:22;19.10;;;14.40;;
30080;SDS011;16902;50.816;12.828;2023-03-20T17:39:24;22.15;;;14.63;;
30080;SDS011;16902;50.816;12.828;2023-03-20T17:44:26;25.48;;;17.23;;
30080;SDS011;16902;50.816;12.828;2023-03-20T17:49:28;24.35;;;17.95;;
30080;SDS011;16902;50.816;12.828;2023-03-20T17:54:29;24.95;;;16.70;;
30080;SDS011;16902;50.816;12.828;2023-03-20T17:59:31;24.67;;;17.48;;
30080;SDS011;16902;50.816;12.828;2023-03-20T18:04:33;26.92;;;17.88;;
30080;SDS011;16902;50.816;12.828;2023-03-20T18:09:36;24.77;;;16.75;;
30080;SDS011;16902;50.816;12.828;2023-03-20T18:14:37;23.48;;;16.58;;
30080;SDS011;16902;50.816;12.828;2023-03-20T18:19:39;25.42;;;17.88;;
30080;SDS011;16902;50.816;12.828;2023-03-20T18:24:42;30.00;;;19.73;;
30080;SDS011;16902;50.816;12.828;2023-03-20T18:29:45;31.02;;;19.13;;
30080;SDS011;16902;50.816;12.828;2023-03-20T18:34:47;27.70;;;18.45;;
30080;SDS011;16902;50.816;12.828;2023-03-20T18:39:49;31.30;;;21.10;;
30080;SDS011;16902;50.816;12.828;2023-03-20T18:44:51;33.40;;;21.23;;
30080;SDS011;16902;50.816;12.828;2023-03-20T18:49:53;34.85;;;21.95;;
30080;SDS011;16902;50.816;12.828;2023-03-20T18:54:54;33.08;;;22.17;;
30080;SDS011;16902;50.816;12.828;2023-03-20T18:59:56;33.88;;;21.38;;
30080;SDS011;16902;50.816;12.828;2023-03-20T19:04:58;37.08;;;22.02;;
30080;SDS011;16902;50.816;12.828;2023-03-20T19:10:00;30.10;;;20.75;;
30080;SDS011;16902;50.816;12.828;2023-03-20T19:15:02;33.80;;;21.95;;
30080;SDS011;16902;50.816;12.828;2023-03-20T19:20:14;32.88;;;21.40;;
30080;SDS011;16902;50.816;12.828;2023-03-20T19:25:22;38.97;;;24.50;;
30080;SDS011;16902;50.816;12.828;2023-03-20T19:30:25;38.97;;;24.55;;
30080;SDS011;16902;50.816;12.828;2023-03-20T19:35:33;41.45;;;25.33;;
30080;SDS011;16902;50.816;12.828;2023-03-20T19:40:56;36.78;;;25.10;;
30080;SDS011;16902;50.816;12.828;2023-03-20T19:45:59;37.58;;;22.95;;
30080;SDS011;16902;50.816;12.828;2023-03-20T19:51:01;36.28;;;24.45;;
30080;SDS011;16902;50.816;12.828;2023-03-20T19:56:05;37.05;;;23.38;;
30080;SDS011;16902;50.816;12.828;2023-03-20T20:01:07;38.00;;;23.27;;
30080;SDS011;16902;50.816;12.828;2023-03-20T20:06:16;41.72;;;25.13;;
30080;SDS011;16902;50.816;12.828;2023-03-20T20:11:22;32.35;;;21.50;;
30080;SDS011;16902;50.816;12.828;2023-03-20T20:16:24;32.45;;;21.48;;
30080;SDS011;16902;50.816;12.828;2023-03-20T20:21:25;33.92;;;22.15;;
30080;SDS011;16902;50.816;12.828;2023-03-20T20:26:48;44.08;;;27.33;;
30080;SDS011;16902;50.816;12.828;2023-03-20T20:32:00;40.30;;;23.85;;
30080;SDS011;16902;50.816;12.828;2023-03-20T20:37:02;35.78;;;23.33;;
30080;SDS011;16902;50.816;12.828;2023-03-20T20:42:24;36.28;;;23.17;;
30080;SDS011;16902;50.816;12.828;2023-03-20T20:47:26;34.97;;;22.67;;
30080;SDS011;16902;50.816;12.828;2023-03-20T20:52:28;33.53;;;20.58;;
30080;SDS011;16902;50.816;12.828;2023-03-20T20:57:31;28.10;;;17.95;;
30080;SDS011;16902;50.816;12.828;2023-03-20T21:02:34;30.95;;;17.38;;
30080;SDS011;16902;50.816;12.828;2023-03-20T21:07:43;32.08;;;18.85;;
30080;SDS011;16902;50.816;12.828;2023-03-20T21:12:46;33.03;;;20.65;;
30080;SDS011;16902;50.816;12.828;2023-03-20T21:18:00;29.33;;;16.40;;
30080;SDS011;16902;50.816;12.828;2023-03-20T21:23:02;23.55;;;16.05;;
30080;SDS011;16902;50.816;12.828;2023-03-20T21:28:04;24.25;;;16.08;;
30080;SDS011;16902;50.816;12.828;2023-03-20T21:33:07;21.65;;;12.70;;
30080;SDS011;16902;50.816;12.828;2023-03-20T21:38:09;21.58;;;13.57;;
30080;SDS011;16902;50.816;12.828;2023-03-20T21:43:31;22.02;;;14.07;;
30080;SDS011;16902;50.816;12.828;2023-03-20T21:48:32;18.98;;;12.38;;
30080;SDS011;16902;50.816;12.828;2023-03-20T21:53:54;21.55;;;13.55;;
30080;SDS011;16902;50.816;12.828;2023-03-20T21:59:16;16.63;;;11.85;;
30080;SDS011;16902;50.816;12.828;2023-03-20T22:04:38;19.00;;;12.05;;
30080;SDS011;16902;50.816;12.828;2023-03-20T22:10:00;16.97;;;11.90;;
30080;SDS011;16902;50.816;12.828;2023-03-20T22:15:23;15.10;;;10.68;;
30080;SDS011;16902;50.816;12.828;2023-03-20T22:20:45;17.95;;;10.93;;
30080;SDS011;16902;50.816;12.828;2023-03-20T22:26:07;17.27;;;10.50;;
30080;SDS011;16902;50.816;12.828;2023-03-20T22:31:33;16.25;;;10.73;;
30080;SDS011;16902;50.816;12.828;2023-03-20T22:36:55;14.07;;;8.93;;
30080;SDS011;16902;50.816;12.828;2023-03-20T22:42:17;17.13;;;10.15;;
30080;SDS011;16902;50.816;12.828;2023-03-20T22:47:38;12.32;;;8.13;;
30080;SDS011;16902;50.816;12.828;2023-03-20T22:52:41;11.50;;;7.90;;
30080;SDS011;16902;50.816;12.828;2023-03-20T22:57:50;10.90;;;7.03;;
30080;SDS011;16902;50.816;12.828;2023-03-20T23:03:08;11.23;;;6.95;;
30080;SDS011;16902;50.816;12.828;2023-03-20T23:08:30;13.48;;;7.25;;
30080;SDS011;16902;50.816;12.828;2023-03-20T23:13:39;10.13;;;6.60;;
30080;SDS011;16902;50.816;12.828;2023-03-20T23:18:42;10.35;;;7.03;;
30080;SDS011;16902;50.816;12.828;2023-03-20T23:23:43;10.00;;;6.88;;
30080;SDS011;16902;50.816;12.828;2023-03-20T23:28:46;9.15;;;7.22;;
30080;SDS011;16902;50.816;12.828;2023-03-20T23:33:50;7.25;;;6.55;;
30080;SDS011;16902;50.816;12.828;2023-03-20T23:38:56;9.32;;;7.35;;
30080;SDS011;16902;50.816;12.828;2023-03-20T23:43:58;6.95;;;6.25;;
30080;SDS011;16902;50.816;12.828;2023-03-20T23:49:00;9.65;;;6.90;;
30080;SDS011;16902;50.816;12.828;2023-03-20T23:54:02;8.90;;;7.05;;
30080;SDS011;16902;50.816;12.828;2023-03-20T23:59:04;7.60;;;6.50;;
